Cornwall, Connecticut
Current Conditions -  °F | °C
As of 9:48 AM on Thursday 30 Oct 2014 (Local Time) from KOXC Reporting Station
Scattered Clouds Scattered Clouds  
Wind Chill: 43°   Ceiling: Unl
Heat Index: 46°   Visibility: 10mi
Dew Point: 41°   Wind: 7mph
Humidity: 81%   Direction: 360°N
Pressure: 30"   Gusts: NA
Location:  41.84°N, 73.33°W
Report Text: KOXC 301348Z 36006KT 10SM SCT075 08/05 A3000
Loading
Personal Weather Stations






























Interactive Weather Map
Tropical Storm Tracking
New forecast layout! Learn more

10-Day Weather Forecast

Advertisements
Track Severe Weather on mobile